sensor_id;sensor_type;location;lat;lon;timestamp;pressure;altitude;pressure_sealevel;temperature;humidity
6128;BME280;7073;42.672;23.256;2023-03-04T00:01:51;94406.22;;;7.39;100.00
6128;BME280;7073;42.672;23.256;2023-03-04T00:04:19;94408.56;;;7.28;100.00
6128;BME280;7073;42.672;23.256;2023-03-04T00:06:46;94408.91;;;7.18;100.00
6128;BME280;7073;42.672;23.256;2023-03-04T00:09:13;94400.31;;;7.11;100.00
6128;BME280;7073;42.672;23.256;2023-03-04T00:11:40;94399.09;;;7.07;100.00
6128;BME280;7073;42.672;23.256;2023-03-04T00:14:06;94407.69;;;7.14;100.00
6128;BME280;7073;42.672;23.256;2023-03-04T00:16:33;94394.50;;;7.03;100.00
6128;BME280;7073;42.672;23.256;2023-03-04T00:19:00;94397.69;;;7.05;100.00
6128;BME280;7073;42.672;23.256;2023-03-04T00:21:28;94395.59;;;7.28;100.00
6128;BME280;7073;42.672;23.256;2023-03-04T00:23:55;94391.81;;;7.24;100.00
6128;BME280;7073;42.672;23.256;2023-03-04T00:26:22;94396.41;;;7.28;100.00
6128;BME280;7073;42.672;23.256;2023-03-04T00:28:49;94388.16;;;7.12;100.00
6128;BME280;7073;42.672;23.256;2023-03-04T00:31:15;94383.78;;;7.12;100.00
6128;BME280;7073;42.672;23.256;2023-03-04T00:33:42;94387.66;;;7.36;100.00
6128;BME280;7073;42.672;23.256;2023-03-04T00:36:09;94392.56;;;7.18;100.00
6128;BME280;7073;42.672;23.256;2023-03-04T00:38:38;94387.06;;;7.34;100.00
6128;BME280;7073;42.672;23.256;2023-03-04T00:41:05;94386.69;;;7.37;100.00
6128;BME280;7073;42.672;23.256;2023-03-04T00:43:31;94388.28;;;7.51;100.00
6128;BME280;7073;42.672;23.256;2023-03-04T00:45:58;94389.38;;;7.76;100.00
6128;BME280;7073;42.672;23.256;2023-03-04T00:48:25;94385.13;;;7.62;100.00
6128;BME280;7073;42.672;23.256;2023-03-04T00:50:52;94387.47;;;7.51;100.00
6128;BME280;7073;42.672;23.256;2023-03-04T00:53:19;94380.25;;;7.33;100.00
6128;BME280;7073;42.672;23.256;2023-03-04T00:55:49;94387.53;;;7.57;100.00
6128;BME280;7073;42.672;23.256;2023-03-04T00:58:16;94383.50;;;7.42;100.00
6128;BME280;7073;42.672;23.256;2023-03-04T01:00:43;94387.94;;;7.07;100.00
6128;BME280;7073;42.672;23.256;2023-03-04T01:03:10;94380.97;;;7.14;100.00
6128;BME280;7073;42.672;23.256;2023-03-04T01:05:37;94374.44;;;7.18;100.00
6128;BME280;7073;42.672;23.256;2023-03-04T01:08:04;94369.91;;;7.26;100.00
6128;BME280;7073;42.672;23.256;2023-03-04T01:10:30;94381.78;;;7.68;100.00
6128;BME280;7073;42.672;23.256;2023-03-04T01:12:59;94381.56;;;7.70;100.00
6128;BME280;7073;42.672;23.256;2023-03-04T01:15:26;94390.91;;;7.64;100.00
6128;BME280;7073;42.672;23.256;2023-03-04T01:17:53;94374.38;;;7.72;100.00
6128;BME280;7073;42.672;23.256;2023-03-04T01:20:20;94374.78;;;7.62;100.00
6128;BME280;7073;42.672;23.256;2023-03-04T01:22:47;94376.38;;;7.70;100.00
6128;BME280;7073;42.672;23.256;2023-03-04T01:25:13;94375.13;;;7.46;100.00
6128;BME280;7073;42.672;23.256;2023-03-04T01:27:40;94377.34;;;7.62;100.00
6128;BME280;7073;42.672;23.256;2023-03-04T01:30:10;94374.09;;;7.34;100.00
6128;BME280;7073;42.672;23.256;2023-03-04T01:32:37;94367.31;;;7.26;100.00
6128;BME280;7073;42.672;23.256;2023-03-04T01:35:04;94364.72;;;7.26;100.00
6128;BME280;7073;42.672;23.256;2023-03-04T01:37:31;94363.06;;;7.12;100.00
6128;BME280;7073;42.672;23.256;2023-03-04T01:39:58;94357.06;;;7.05;100.00
6128;BME280;7073;42.672;23.256;2023-03-04T01:42:27;94358.22;;;6.96;100.00
6128;BME280;7073;42.672;23.256;2023-03-04T01:44:56;94349.91;;;7.07;100.00
6128;BME280;7073;42.672;23.256;2023-03-04T01:47:27;94345.91;;;7.05;100.00
6128;BME280;7073;42.672;23.256;2023-03-04T01:49:56;94343.19;;;6.78;100.00
6128;BME280;7073;42.672;23.256;2023-03-04T01:52:24;94348.41;;;6.85;100.00
6128;BME280;7073;42.672;23.256;2023-03-04T01:54:52;94345.06;;;6.57;100.00
6128;BME280;7073;42.672;23.256;2023-03-04T01:57:21;94342.75;;;6.68;100.00
6128;BME280;7073;42.672;23.256;2023-03-04T02:00:10;94338.50;;;6.54;100.00
6128;BME280;7073;42.672;23.256;2023-03-04T02:02:42;94346.94;;;6.69;100.00
6128;BME280;7073;42.672;23.256;2023-03-04T02:05:09;94334.22;;;6.74;100.00
6128;BME280;7073;42.672;23.256;2023-03-04T02:07:36;94347.69;;;7.04;100.00
6128;BME280;7073;42.672;23.256;2023-03-04T02:10:04;94345.56;;;7.21;100.00
6128;BME280;7073;42.672;23.256;2023-03-04T02:12:31;94351.16;;;7.31;100.00
6128;BME280;7073;42.672;23.256;2023-03-04T02:14:58;94342.25;;;7.40;100.00
6128;BME280;7073;42.672;23.256;2023-03-04T02:17:25;94337.25;;;7.52;100.00
6128;BME280;7073;42.672;23.256;2023-03-04T02:19:57;94330.88;;;7.48;100.00
6128;BME280;7073;42.672;23.256;2023-03-04T02:22:28;94337.22;;;7.38;100.00
6128;BME280;7073;42.672;23.256;2023-03-04T02:24:58;94331.81;;;7.20;100.00
6128;BME280;7073;42.672;23.256;2023-03-04T02:27:27;94334.41;;;7.20;100.00
6128;BME280;7073;42.672;23.256;2023-03-04T02:29:54;94334.00;;;7.30;100.00
6128;BME280;7073;42.672;23.256;2023-03-04T02:32:22;94336.94;;;7.14;100.00
6128;BME280;7073;42.672;23.256;2023-03-04T02:34:49;94336.34;;;7.05;100.00
6128;BME280;7073;42.672;23.256;2023-03-04T02:37:17;94330.38;;;7.05;100.00
6128;BME280;7073;42.672;23.256;2023-03-04T02:39:47;94328.88;;;6.83;100.00
6128;BME280;7073;42.672;23.256;2023-03-04T02:42:15;94323.13;;;6.87;100.00
6128;BME280;7073;42.672;23.256;2023-03-04T02:44:45;94326.69;;;6.86;100.00
6128;BME280;7073;42.672;23.256;2023-03-04T02:47:15;94317.91;;;6.40;100.00
6128;BME280;7073;42.672;23.256;2023-03-04T02:49:43;94318.84;;;6.32;100.00
6128;BME280;7073;42.672;23.256;2023-03-04T02:52:14;94317.56;;;6.15;100.00
6128;BME280;7073;42.672;23.256;2023-03-04T02:54:43;94318.47;;;6.35;100.00
6128;BME280;7073;42.672;23.256;2023-03-04T02:57:11;94318.84;;;6.32;100.00
6128;BME280;7073;42.672;23.256;2023-03-04T02:59:39;94319.69;;;6.39;100.00
6128;BME280;7073;42.672;23.256;2023-03-04T03:02:08;94302.94;;;6.29;100.00
6128;BME280;7073;42.672;23.256;2023-03-04T03:04:37;94324.50;;;6.42;100.00
6128;BME280;7073;42.672;23.256;2023-03-04T03:07:04;94320.00;;;6.57;100.00
6128;BME280;7073;42.672;23.256;2023-03-04T03:09:31;94322.81;;;6.62;100.00
6128;BME280;7073;42.672;23.256;2023-03-04T03:11:58;94321.25;;;6.74;100.00
6128;BME280;7073;42.672;23.256;2023-03-04T03:14:25;94320.50;;;6.81;100.00
6128;BME280;7073;42.672;23.256;2023-03-04T03:16:52;94313.28;;;6.69;100.00
6128;BME280;7073;42.672;23.256;2023-03-04T03:19:20;94325.44;;;6.69;100.00
6128;BME280;7073;42.672;23.256;2023-03-04T03:21:46;94326.16;;;6.56;100.00
6128;BME280;7073;42.672;23.256;2023-03-04T03:24:14;94321.91;;;6.76;100.00
6128;BME280;7073;42.672;23.256;2023-03-04T03:26:41;94321.16;;;6.96;100.00
6128;BME280;7073;42.672;23.256;2023-03-04T03:29:07;94316.72;;;6.83;100.00
6128;BME280;7073;42.672;23.256;2023-03-04T03:31:34;94315.81;;;6.97;100.00
6128;BME280;7073;42.672;23.256;2023-03-04T03:34:01;94317.84;;;6.67;100.00
6128;BME280;7073;42.672;23.256;2023-03-04T03:36:29;94318.53;;;6.48;100.00
6128;BME280;7073;42.672;23.256;2023-03-04T03:38:56;94326.34;;;6.55;100.00
6128;BME280;7073;42.672;23.256;2023-03-04T03:41:23;94318.88;;;6.73;100.00
6128;BME280;7073;42.672;23.256;2023-03-04T03:43:50;94304.53;;;6.70;100.00
6128;BME280;7073;42.672;23.256;2023-03-04T03:46:16;94309.72;;;6.77;100.00
6128;BME280;7073;42.672;23.256;2023-03-04T03:48:43;94311.84;;;6.60;100.00
6128;BME280;7073;42.672;23.256;2023-03-04T03:51:10;94309.31;;;6.33;100.00
6128;BME280;7073;42.672;23.256;2023-03-04T03:53:38;94309.00;;;6.49;100.00
6128;BME280;7073;42.672;23.256;2023-03-04T03:56:05;94322.59;;;6.57;100.00
6128;BME280;7073;42.672;23.256;2023-03-04T03:58:32;94311.53;;;6.76;100.00
6128;BME280;7073;42.672;23.256;2023-03-04T04:00:59;94313.16;;;6.91;100.00
6128;BME280;7073;42.672;23.256;2023-03-04T04:03:26;94307.97;;;6.84;100.00
6128;BME280;7073;42.672;23.256;2023-03-04T04:05:53;94297.84;;;6.96;100.00
6128;BME280;7073;42.672;23.256;2023-03-04T04:08:20;94300.25;;;7.04;100.00
6128;BME280;7073;42.672;23.256;2023-03-04T04:10:48;94302.34;;;6.33;100.00
6128;BME280;7073;42.672;23.256;2023-03-04T04:13:15;94293.59;;;6.34;100.00
6128;BME280;7073;42.672;23.256;2023-03-04T04:15:42;94299.59;;;6.41;100.00
6128;BME280;7073;42.672;23.256;2023-03-04T04:18:09;94296.66;;;6.44;100.00
6128;BME280;7073;42.672;23.256;2023-03-04T04:20:37;94293.38;;;5.95;100.00
6128;BME280;7073;42.672;23.256;2023-03-04T04:23:04;94300.19;;;6.02;100.00
6128;BME280;7073;42.672;23.256;2023-03-04T04:25:30;94295.38;;;5.78;100.00
6128;BME280;7073;42.672;23.256;2023-03-04T04:27:58;94299.19;;;5.82;100.00
6128;BME280;7073;42.672;23.256;2023-03-04T04:30:25;94301.00;;;5.61;100.00
6128;BME280;7073;42.672;23.256;2023-03-04T04:32:52;94275.69;;;5.49;100.00
6128;BME280;7073;42.672;23.256;2023-03-04T04:35:19;94278.88;;;5.51;100.00
6128;BME280;7073;42.672;23.256;2023-03-04T04:37:46;94293.41;;;5.52;100.00
6128;BME280;7073;42.672;23.256;2023-03-04T04:40:13;94279.81;;;5.23;100.00
6128;BME280;7073;42.672;23.256;2023-03-04T04:42:43;94297.69;;;5.24;100.00
6128;BME280;7073;42.672;23.256;2023-03-04T04:45:14;94300.72;;;5.49;100.00
6128;BME280;7073;42.672;23.256;2023-03-04T04:47:41;94296.09;;;5.23;100.00
6128;BME280;7073;42.672;23.256;2023-03-04T04:50:09;94306.34;;;5.17;100.00
6128;BME280;7073;42.672;23.256;2023-03-04T04:52:37;94303.88;;;5.09;100.00
6128;BME280;7073;42.672;23.256;2023-03-04T04:55:06;94289.78;;;4.90;100.00
6128;BME280;7073;42.672;23.256;2023-03-04T04:57:35;94304.78;;;5.01;100.00
6128;BME280;7073;42.672;23.256;2023-03-04T05:00:05;94302.00;;;5.17;100.00
6128;BME280;7073;42.672;23.256;2023-03-04T05:02:34;94303.94;;;4.94;100.00
6128;BME280;7073;42.672;23.256;2023-03-04T05:05:03;94293.69;;;4.50;100.00
6128;BME280;7073;42.672;23.256;2023-03-04T05:07:33;94310.41;;;4.54;100.00
6128;BME280;7073;42.672;23.256;2023-03-04T05:10:03;94318.69;;;4.35;100.00
6128;BME280;7073;42.672;23.256;2023-03-04T05:12:31;94326.50;;;4.42;100.00
6128;BME280;7073;42.672;23.256;2023-03-04T05:14:58;94322.84;;;4.65;100.00
6128;BME280;7073;42.672;23.256;2023-03-04T05:17:25;94328.38;;;4.62;100.00
6128;BME280;7073;42.672;23.256;2023-03-04T05:20:05;94318.44;;;4.45;100.00
6128;BME280;7073;42.672;23.256;2023-03-04T05:22:32;94329.00;;;4.35;100.00
6128;BME280;7073;42.672;23.256;2023-03-04T05:24:59;94328.66;;;4.53;100.00
6128;BME280;7073;42.672;23.256;2023-03-04T05:27:26;94331.47;;;4.72;100.00
6128;BME280;7073;42.672;23.256;2023-03-04T05:29:53;94341.53;;;5.03;100.00
6128;BME280;7073;42.672;23.256;2023-03-04T05:32:20;94344.00;;;5.11;100.00
6128;BME280;7073;42.672;23.256;2023-03-04T05:34:49;94337.22;;;4.74;100.00
6128;BME280;7073;42.672;23.256;2023-03-04T05:37:17;94332.81;;;4.68;100.00
6128;BME280;7073;42.672;23.256;2023-03-04T05:39:44;94339.50;;;4.63;100.00
6128;BME280;7073;42.672;23.256;2023-03-04T05:42:11;94328.94;;;4.93;100.00
6128;BME280;7073;42.672;23.256;2023-03-04T05:44:37;94336.22;;;5.05;100.00
6128;BME280;7073;42.672;23.256;2023-03-04T05:47:05;94342.53;;;5.02;100.00
6128;BME280;7073;42.672;23.256;2023-03-04T05:49:32;94350.03;;;4.97;100.00
6128;BME280;7073;42.672;23.256;2023-03-04T05:52:02;94334.19;;;5.00;100.00
6128;BME280;7073;42.672;23.256;2023-03-04T05:54:47;94342.44;;;5.10;100.00
6128;BME280;7073;42.672;23.256;2023-03-04T05:57:14;94338.34;;;5.16;100.00
6128;BME280;7073;42.672;23.256;2023-03-04T05:59:41;94327.66;;;5.40;100.00
6128;BME280;7073;42.672;23.256;2023-03-04T06:02:08;94348.69;;;5.79;100.00
6128;BME280;7073;42.672;23.256;2023-03-04T06:04:35;94348.63;;;5.94;100.00
6128;BME280;7073;42.672;23.256;2023-03-04T06:07:02;94360.09;;;6.12;100.00
6128;BME280;7073;42.672;23.256;2023-03-04T06:09:28;94347.53;;;6.03;100.00
6128;BME280;7073;42.672;23.256;2023-03-04T06:11:57;94364.88;;;6.43;100.00
6128;BME280;7073;42.672;23.256;2023-03-04T06:14:23;94351.66;;;6.59;100.00
6128;BME280;7073;42.672;23.256;2023-03-04T06:16:50;94355.47;;;6.63;100.00
6128;BME280;7073;42.672;23.256;2023-03-04T06:19:17;94355.94;;;6.73;100.00
6128;BME280;7073;42.672;23.256;2023-03-04T06:21:44;94365.91;;;6.42;100.00
6128;BME280;7073;42.672;23.256;2023-03-04T06:24:11;94359.38;;;6.87;100.00
6128;BME280;7073;42.672;23.256;2023-03-04T06:26:38;94369.78;;;7.00;100.00
6128;BME280;7073;42.672;23.256;2023-03-04T06:29:06;94369.47;;;6.75;100.00
6128;BME280;7073;42.672;23.256;2023-03-04T06:31:33;94373.63;;;7.11;100.00
6128;BME280;7073;42.672;23.256;2023-03-04T06:33:59;94368.50;;;6.83;100.00
6128;BME280;7073;42.672;23.256;2023-03-04T06:36:26;94370.63;;;7.14;100.00
6128;BME280;7073;42.672;23.256;2023-03-04T06:38:53;94373.53;;;7.52;100.00
6128;BME280;7073;42.672;23.256;2023-03-04T06:41:20;94371.16;;;7.50;100.00
6128;BME280;7073;42.672;23.256;2023-03-04T06:43:46;94380.53;;;7.64;100.00
6128;BME280;7073;42.672;23.256;2023-03-04T06:46:15;94378.91;;;7.37;100.00
6128;BME280;7073;42.672;23.256;2023-03-04T06:48:41;94378.09;;;7.43;100.00
6128;BME280;7073;42.672;23.256;2023-03-04T06:51:10;94385.88;;;7.36;100.00
6128;BME280;7073;42.672;23.256;2023-03-04T06:53:37;94376.53;;;7.42;100.00
6128;BME280;7073;42.672;23.256;2023-03-04T06:56:05;94370.00;;;7.72;100.00
6128;BME280;7073;42.672;23.256;2023-03-04T06:58:33;94388.28;;;7.51;100.00
6128;BME280;7073;42.672;23.256;2023-03-04T07:01:11;94390.75;;;7.85;100.00
6128;BME280;7073;42.672;23.256;2023-03-04T07:03:39;94382.00;;;7.19;100.00
6128;BME280;7073;42.672;23.256;2023-03-04T07:06:08;94382.72;;;7.54;100.00
6128;BME280;7073;42.672;23.256;2023-03-04T07:08:35;94382.81;;;7.20;100.00
6128;BME280;7073;42.672;23.256;2023-03-04T07:11:01;94385.28;;;7.34;100.00
6128;BME280;7073;42.672;23.256;2023-03-04T07:13:28;94390.19;;;7.23;99.64
6128;BME280;7073;42.672;23.256;2023-03-04T07:15:55;94388.00;;;7.20;100.00
6128;BME280;7073;42.672;23.256;2023-03-04T07:18:22;94390.28;;;7.49;99.23
6128;BME280;7073;42.672;23.256;2023-03-04T07:20:52;94397.03;;;7.44;99.78
6128;BME280;7073;42.672;23.256;2023-03-04T07:23:19;94393.50;;;7.64;98.68
6128;BME280;7073;42.672;23.256;2023-03-04T07:25:47;94395.53;;;7.75;98.44
6128;BME280;7073;42.672;23.256;2023-03-04T07:28:14;94395.50;;;7.62;99.38
6128;BME280;7073;42.672;23.256;2023-03-04T07:30:41;94391.50;;;7.53;99.31
6128;BME280;7073;42.672;23.256;2023-03-04T07:33:07;94393.47;;;7.45;100.00
6128;BME280;7073;42.672;23.256;2023-03-04T07:35:34;94386.50;;;7.52;100.00
6128;BME280;7073;42.672;23.256;2023-03-04T07:38:02;94394.38;;;7.97;98.23
6128;BME280;7073;42.672;23.256;2023-03-04T07:40:29;94389.22;;;8.11;97.20
6128;BME280;7073;42.672;23.256;2023-03-04T07:42:56;94387.81;;;8.08;96.49
6128;BME280;7073;42.672;23.256;2023-03-04T07:45:23;94395.94;;;7.85;96.03
6128;BME280;7073;42.672;23.256;2023-03-04T07:47:50;94388.81;;;8.00;95.97
6128;BME280;7073;42.672;23.256;2023-03-04T07:50:17;94390.78;;;8.25;94.90
6128;BME280;7073;42.672;23.256;2023-03-04T07:52:46;94385.19;;;8.15;94.70
6128;BME280;7073;42.672;23.256;2023-03-04T07:55:15;94391.59;;;8.19;93.38
6128;BME280;7073;42.672;23.256;2023-03-04T07:57:43;94376.22;;;8.17;92.81
6128;BME280;7073;42.672;23.256;2023-03-04T08:00:11;94377.63;;;8.07;94.09
6128;BME280;7073;42.672;23.256;2023-03-04T08:02:39;94382.00;;;8.13;94.20
6128;BME280;7073;42.672;23.256;2023-03-04T08:05:06;94372.84;;;8.23;94.40
6128;BME280;7073;42.672;23.256;2023-03-04T08:07:33;94378.06;;;8.36;93.35
6128;BME280;7073;42.672;23.256;2023-03-04T08:10:00;94371.84;;;8.18;92.64
6128;BME280;7073;42.672;23.256;2023-03-04T08:12:29;94380.41;;;8.18;91.63
6128;BME280;7073;42.672;23.256;2023-03-04T08:14:55;94380.84;;;8.35;91.06
6128;BME280;7073;42.672;23.256;2023-03-04T08:17:22;94391.00;;;8.63;90.38
6128;BME280;7073;42.672;23.256;2023-03-04T08:19:49;94382.44;;;8.29;93.04
6128;BME280;7073;42.672;23.256;2023-03-04T08:22:16;94380.41;;;8.05;92.65
6128;BME280;7073;42.672;23.256;2023-03-04T08:24:42;94375.63;;;8.02;92.38
6128;BME280;7073;42.672;23.256;2023-03-04T08:27:09;94384.22;;;8.35;91.19
6128;BME280;7073;42.672;23.256;2023-03-04T08:29:37;94373.06;;;8.28;93.32
6128;BME280;7073;42.672;23.256;2023-03-04T08:32:04;94375.41;;;8.17;92.93
6128;BME280;7073;42.672;23.256;2023-03-04T08:34:31;94375.03;;;8.20;92.91
6128;BME280;7073;42.672;23.256;2023-03-04T08:36:58;94356.06;;;8.13;91.58
6128;BME280;7073;42.672;23.256;2023-03-04T08:39:25;94375.66;;;8.35;92.25
6128;BME280;7073;42.672;23.256;2023-03-04T08:41:51;94376.84;;;8.39;92.11
6128;BME280;7073;42.672;23.256;2023-03-04T08:44:18;94378.47;;;8.27;92.05
6128;BME280;7073;42.672;23.256;2023-03-04T08:46:46;94374.44;;;8.57;89.55
6128;BME280;7073;42.672;23.256;2023-03-04T08:49:13;94372.81;;;8.69;89.29
6128;BME280;7073;42.672;23.256;2023-03-04T08:51:40;94380.81;;;8.74;89.56
6128;BME280;7073;42.672;23.256;2023-03-04T08:54:07;94373.97;;;8.86;88.57
6128;BME280;7073;42.672;23.256;2023-03-04T08:56:34;94369.59;;;8.80;88.91
6128;BME280;7073;42.672;23.256;2023-03-04T08:59:01;94376.44;;;8.48;89.48
6128;BME280;7073;42.672;23.256;2023-03-04T09:01:27;94365.03;;;8.69;89.11
6128;BME280;7073;42.672;23.256;2023-03-04T09:03:56;94368.97;;;8.91;88.77
6128;BME280;7073;42.672;23.256;2023-03-04T09:06:22;94370.16;;;9.77;85.40
6128;BME280;7073;42.672;23.256;2023-03-04T09:08:49;94368.41;;;10.03;82.84
6128;BME280;7073;42.672;23.256;2023-03-04T09:11:16;94361.25;;;10.29;82.17
6128;BME280;7073;42.672;23.256;2023-03-04T09:13:43;94368.78;;;10.37;80.68
6128;BME280;7073;42.672;23.256;2023-03-04T09:16:11;94360.41;;;9.73;81.64
6128;BME280;7073;42.672;23.256;2023-03-04T09:18:38;94358.09;;;9.14;83.45
6128;BME280;7073;42.672;23.256;2023-03-04T09:21:07;94356.63;;;9.31;84.65
6128;BME280;7073;42.672;23.256;2023-03-04T09:23:35;94353.25;;;9.62;82.87
6128;BME280;7073;42.672;23.256;2023-03-04T09:26:12;94348.66;;;9.95;81.40
6128;BME280;7073;42.672;23.256;2023-03-04T09:28:39;94351.22;;;9.70;80.38
6128;BME280;7073;42.672;23.256;2023-03-04T09:31:10;94362.75;;;9.81;79.48
6128;BME280;7073;42.672;23.256;2023-03-04T09:33:37;94355.16;;;10.11;79.47
6128;BME280;7073;42.672;23.256;2023-03-04T09:36:08;94353.44;;;9.98;78.14
6128;BME280;7073;42.672;23.256;2023-03-04T09:38:35;94344.84;;;9.98;79.22
6128;BME280;7073;42.672;23.256;2023-03-04T09:41:05;94324.47;;;9.26;81.73
6128;BME280;7073;42.672;23.256;2023-03-04T09:43:32;94343.06;;;10.66;78.49
6128;BME280;7073;42.672;23.256;2023-03-04T09:46:02;94349.16;;;11.32;74.83
6128;BME280;7073;42.672;23.256;2023-03-04T09:48:39;94353.09;;;10.44;72.76
6128;BME280;7073;42.672;23.256;2023-03-04T09:51:18;94349.13;;;10.60;73.97
6128;BME280;7073;42.672;23.256;2023-03-04T09:53:50;94339.75;;;10.77;75.31
6128;BME280;7073;42.672;23.256;2023-03-04T09:56:21;94344.81;;;11.08;72.48
6128;BME280;7073;42.672;23.256;2023-03-04T09:58:55;94350.88;;;10.23;72.85
6128;BME280;7073;42.672;23.256;2023-03-04T10:01:25;94335.84;;;9.94;75.69
6128;BME280;7073;42.672;23.256;2023-03-04T10:03:57;94337.50;;;10.62;74.47
6128;BME280;7073;42.672;23.256;2023-03-04T10:06:27;94334.06;;;10.62;77.13
6128;BME280;7073;42.672;23.256;2023-03-04T10:08:58;94330.03;;;10.48;77.44
6128;BME280;7073;42.672;23.256;2023-03-04T10:11:28;94330.31;;;10.58;75.83
6128;BME280;7073;42.672;23.256;2023-03-04T10:14:01;94324.41;;;10.69;74.82
6128;BME280;7073;42.672;23.256;2023-03-04T10:16:33;94319.41;;;10.67;75.55
6128;BME280;7073;42.672;23.256;2023-03-04T10:19:17;94328.13;;;10.36;75.71
6128;BME280;7073;42.672;23.256;2023-03-04T10:21:50;94311.38;;;10.51;77.15
6128;BME280;7073;42.672;23.256;2023-03-04T10:24:19;94306.97;;;10.02;77.89
6128;BME280;7073;42.672;23.256;2023-03-04T10:26:51;94306.34;;;10.31;78.52
6128;BME280;7073;42.672;23.256;2023-03-04T10:29:22;94307.75;;;10.52;79.72
6128;BME280;7073;42.672;23.256;2023-03-04T10:31:49;94299.19;;;10.44;78.71
6128;BME280;7073;42.672;23.256;2023-03-04T10:34:16;94304.28;;;10.58;78.12
6128;BME280;7073;42.672;23.256;2023-03-04T10:36:53;94296.03;;;10.97;76.57
6128;BME280;7073;42.672;23.256;2023-03-04T10:39:25;94297.81;;;10.96;76.15
6128;BME280;7073;42.672;23.256;2023-03-04T10:41:59;94280.47;;;10.54;78.11
6128;BME280;7073;42.672;23.256;2023-03-04T10:44:28;94285.19;;;10.46;78.44
6128;BME280;7073;42.672;23.256;2023-03-04T10:47:00;94285.75;;;10.29;79.69
6128;BME280;7073;42.672;23.256;2023-03-04T10:49:28;94278.88;;;10.53;77.24
6128;BME280;7073;42.672;23.256;2023-03-04T10:52:03;94277.50;;;10.87;76.60
6128;BME280;7073;42.672;23.256;2023-03-04T10:54:41;94256.94;;;10.79;74.90
6128;BME280;7073;42.672;23.256;2023-03-04T10:57:15;94264.91;;;10.48;77.69
6128;BME280;7073;42.672;23.256;2023-03-04T10:59:46;94236.41;;;10.10;77.07
6128;BME280;7073;42.672;23.256;2023-03-04T11:02:24;94263.59;;;10.38;77.96
6128;BME280;7073;42.672;23.256;2023-03-04T11:04:54;94261.59;;;9.91;80.87
6128;BME280;7073;42.672;23.256;2023-03-04T11:07:25;94241.75;;;9.97;81.34
6128;BME280;7073;42.672;23.256;2023-03-04T11:09:52;94253.22;;;9.89;80.50
6128;BME280;7073;42.672;23.256;2023-03-04T11:12:29;94238.00;;;9.68;83.57
6128;BME280;7073;42.672;23.256;2023-03-04T11:14:57;94230.34;;;9.73;84.67
6128;BME280;7073;42.672;23.256;2023-03-04T11:17:26;94242.59;;;9.91;82.80
6128;BME280;7073;42.672;23.256;2023-03-04T11:19:56;94238.66;;;10.06;81.74
6128;BME280;7073;42.672;23.256;2023-03-04T11:22:26;94227.78;;;10.16;79.26
6128;BME280;7073;42.672;23.256;2023-03-04T11:24:58;94226.47;;;10.43;78.56
6128;BME280;7073;42.672;23.256;2023-03-04T11:27:37;94217.66;;;10.44;80.50
6128;BME280;7073;42.672;23.256;2023-03-04T11:30:28;94215.50;;;10.41;79.60
6128;BME280;7073;42.672;23.256;2023-03-04T11:33:07;94212.22;;;10.27;81.44
6128;BME280;7073;42.672;23.256;2023-03-04T11:35:43;94212.09;;;10.22;79.52
6128;BME280;7073;42.672;23.256;2023-03-04T11:38:18;94210.94;;;10.18;80.31
6128;BME280;7073;42.672;23.256;2023-03-04T11:40:48;94211.94;;;10.35;80.36
6128;BME280;7073;42.672;23.256;2023-03-04T11:43:18;94205.50;;;10.20;81.90
6128;BME280;7073;42.672;23.256;2023-03-04T11:49:11;94206.44;;;10.80;77.75
6128;BME280;7073;42.672;23.256;2023-03-04T11:51:46;94197.41;;;11.24;75.95
6128;BME280;7073;42.672;23.256;2023-03-04T11:54:24;94196.00;;;11.62;74.05
6128;BME280;7073;42.672;23.256;2023-03-04T11:56:58;94198.19;;;11.65;73.74
6128;BME280;7073;42.672;23.256;2023-03-04T11:59:55;94191.63;;;12.09;71.30
6128;BME280;7073;42.672;23.256;2023-03-04T12:02:32;94182.72;;;10.99;76.25
6128;BME280;7073;42.672;23.256;2023-03-04T12:05:26;94188.81;;;11.99;72.38
6128;BME280;7073;42.672;23.256;2023-03-04T12:08:17;94188.47;;;11.84;70.72
6128;BME280;7073;42.672;23.256;2023-03-04T12:10:55;94183.53;;;11.64;73.05
6128;BME280;7073;42.672;23.256;2023-03-04T12:13:57;94174.34;;;11.09;75.52
6128;BME280;7073;42.672;23.256;2023-03-04T12:16:39;94172.66;;;11.15;75.77
6128;BME280;7073;42.672;23.256;2023-03-04T12:19:19;94171.34;;;11.24;73.52
6128;BME280;7073;42.672;23.256;2023-03-04T12:22:13;94169.19;;;11.21;73.15
6128;BME280;7073;42.672;23.256;2023-03-04T12:24:55;94163.72;;;10.81;75.38
6128;BME280;7073;42.672;23.256;2023-03-04T12:27:35;94162.94;;;11.22;74.40
6128;BME280;7073;42.672;23.256;2023-03-04T12:30:33;94164.09;;;11.26;73.93
6128;BME280;7073;42.672;23.256;2023-03-04T12:33:13;94132.94;;;10.60;76.76
6128;BME280;7073;42.672;23.256;2023-03-04T12:38:58;94154.59;;;10.90;73.04
6128;BME280;7073;42.672;23.256;2023-03-04T12:41:33;94143.75;;;10.75;75.02
6128;BME280;7073;42.672;23.256;2023-03-04T12:44:13;94132.06;;;10.66;77.18
6128;BME280;7073;42.672;23.256;2023-03-04T12:46:58;94148.38;;;11.55;71.77
6128;BME280;7073;42.672;23.256;2023-03-04T12:49:40;94147.81;;;11.65;70.89
6128;BME280;7073;42.672;23.256;2023-03-04T12:52:15;94146.81;;;11.89;69.33
6128;BME280;7073;42.672;23.256;2023-03-04T12:57:34;94138.13;;;11.31;71.29
6128;BME280;7073;42.672;23.256;2023-03-04T13:00:13;94136.53;;;11.18;74.17
6128;BME280;7073;42.672;23.256;2023-03-04T13:02:54;94135.00;;;11.63;71.55
6128;BME280;7073;42.672;23.256;2023-03-04T13:05:43;94119.34;;;10.99;73.47
6128;BME280;7073;42.672;23.256;2023-03-04T13:08:25;94123.75;;;11.51;72.36
6128;BME280;7073;42.672;23.256;2023-03-04T13:11:00;94114.69;;;11.42;73.91
6128;BME280;7073;42.672;23.256;2023-03-04T13:13:37;94114.47;;;11.55;72.27
6128;BME280;7073;42.672;23.256;2023-03-04T13:16:14;94109.78;;;11.46;71.54
6128;BME280;7073;42.672;23.256;2023-03-04T13:18:53;94107.06;;;11.41;72.71
6128;BME280;7073;42.672;23.256;2023-03-04T13:21:22;94108.38;;;10.97;74.52
6128;BME280;7073;42.672;23.256;2023-03-04T13:23:50;94101.63;;;10.78;76.67
6128;BME280;7073;42.672;23.256;2023-03-04T13:26:28;94106.28;;;11.40;73.73
6128;BME280;7073;42.672;23.256;2023-03-04T13:29:31;94107.53;;;11.61;70.03
6128;BME280;7073;42.672;23.256;2023-03-04T13:32:02;94103.06;;;11.15;71.98
6128;BME280;7073;42.672;23.256;2023-03-04T13:34:56;94091.44;;;10.76;73.79
6128;BME280;7073;42.672;23.256;2023-03-04T13:37:31;94096.72;;;10.70;74.00